createdAt,value
2022-09-22T00:00:16.693Z,2.03
2022-09-22T00:05:18.493Z,2.08
2022-09-22T00:10:21.685Z,3.10
2022-09-22T00:15:23.512Z,2.20
2022-09-22T00:20:25.414Z,2.63
2022-09-22T00:25:27.467Z,2.58
2022-09-22T00:30:31.335Z,2.22
2022-09-22T00:35:33.176Z,1.73
2022-09-22T00:40:35.993Z,1.83
2022-09-22T00:45:37.967Z,2.40
2022-09-22T00:50:40.664Z,1.85
2022-09-22T00:55:59.562Z,2.10
2022-09-22T01:01:02.367Z,2.00
2022-09-22T01:06:06.906Z,1.48
2022-09-22T01:11:08.726Z,2.03
2022-09-22T01:16:34.829Z,1.85
2022-09-22T01:22:14.164Z,1.52
2022-09-22T01:27:27.696Z,2.33
2022-09-22T01:33:02.782Z,2.00
2022-09-22T01:38:07.647Z,1.65
2022-09-22T01:43:36.336Z,1.70
2022-09-22T01:48:42.725Z,1.60
2022-09-22T01:53:52.622Z,1.45
2022-09-22T01:58:57.893Z,1.45
2022-09-22T02:04:09.943Z,2.10
2022-09-22T02:09:17.114Z,1.88
2022-09-22T02:14:19.286Z,1.57
2022-09-22T02:19:25.281Z,1.70
2022-09-22T02:24:34.623Z,1.70
2022-09-22T02:29:40.946Z,2.00
2022-09-22T02:34:45.909Z,1.73
2022-09-22T02:39:50.565Z,1.77
2022-09-22T02:45:12.626Z,2.00
2022-09-22T02:50:19.601Z,2.05
2022-09-22T02:55:21.501Z,2.70
2022-09-22T03:00:23.287Z,2.13
2022-09-22T03:05:25.518Z,2.13
2022-09-22T03:10:27.420Z,2.13
2022-09-22T03:15:29.994Z,1.98
2022-09-22T03:20:31.775Z,2.00
2022-09-22T03:25:33.586Z,2.30
2022-09-22T03:30:37.376Z,2.30
2022-09-22T03:35:39.306Z,2.13
2022-09-22T03:40:41.644Z,2.55
2022-09-22T03:45:43.797Z,2.78
2022-09-22T03:50:45.677Z,2.33
2022-09-22T03:55:47.495Z,3.13
2022-09-22T04:00:49.978Z,3.03
2022-09-22T04:05:52.007Z,2.78
2022-09-22T04:10:54.271Z,2.67
2022-09-22T04:15:56.407Z,2.05
2022-09-22T04:20:59.313Z,2.70
2022-09-22T04:26:02.182Z,2.42
2022-09-22T04:31:04.204Z,2.45
2022-09-22T04:36:06.371Z,2.33
2022-09-22T04:41:08.302Z,2.55
2022-09-22T04:46:10.165Z,3.75
2022-09-22T04:51:12.094Z,8.68
2022-09-22T04:56:14.104Z,6.03
2022-09-22T05:01:15.998Z,5.15
2022-09-22T05:06:17.897Z,4.45
2022-09-22T05:11:24.817Z,2.97
2022-09-22T05:16:26.797Z,8.32
2022-09-22T05:21:28.963Z,3.75
2022-09-22T05:26:33.533Z,3.55
2022-09-22T05:31:35.466Z,7.82
2022-09-22T05:36:37.565Z,10.68
2022-09-22T05:41:39.981Z,3.35
2022-09-22T05:46:42.434Z,6.53
2022-09-22T05:51:44.426Z,5.53
2022-09-22T05:56:46.377Z,3.95
2022-09-22T06:01:48.601Z,2.47
2022-09-22T06:06:50.483Z,2.63
2022-09-22T06:11:53.543Z,2.75
2022-09-22T06:16:55.963Z,3.97
2022-09-22T06:21:57.690Z,3.13
2022-09-22T06:26:59.451Z,3.38
2022-09-22T06:32:02.112Z,2.67
2022-09-22T06:37:10.134Z,3.13
2022-09-22T06:47:14.656Z,2.80
2022-09-22T06:52:16.454Z,3.75
2022-09-22T06:57:19.202Z,3.78
2022-09-22T07:02:28.506Z,3.22
2022-09-22T07:07:32.249Z,2.85
2022-09-22T07:12:34.580Z,3.00
2022-09-22T07:17:37.025Z,3.17
2022-09-22T07:22:39.376Z,3.55
2022-09-22T07:27:41.203Z,2.65
2022-09-22T07:32:43.007Z,3.13
2022-09-22T07:37:46.722Z,3.05
2022-09-22T07:42:49.820Z,2.85
2022-09-22T07:48:10.332Z,2.88
2022-09-22T07:53:12.156Z,3.28
2022-09-22T07:58:17.247Z,3.17
2022-09-22T08:03:19.420Z,2.60
2022-09-22T08:08:21.429Z,3.00
2022-09-22T08:13:23.788Z,3.03
2022-09-22T08:18:26.200Z,3.28
2022-09-22T08:23:31.481Z,3.00
2022-09-22T08:28:33.825Z,3.00
2022-09-22T08:33:35.828Z,2.70
2022-09-22T08:38:39.103Z,2.90
2022-09-22T08:43:47.097Z,2.83
2022-09-22T08:49:09.227Z,2.95
2022-09-22T08:54:11.124Z,3.55
2022-09-22T08:59:23.187Z,4.10
2022-09-22T09:04:42.680Z,3.47
2022-09-22T09:09:58.283Z,2.72
2022-09-22T09:15:25.074Z,3.10
2022-09-22T09:20:39.099Z,2.63
2022-09-22T09:25:42.759Z,2.85
2022-09-22T09:30:54.338Z,2.13
2022-09-22T09:35:56.434Z,1.73
2022-09-22T09:41:18.142Z,1.48
2022-09-22T09:46:44.738Z,2.10
2022-09-22T09:51:57.117Z,1.83
2022-09-22T09:57:17.120Z,2.55
2022-09-22T10:02:28.330Z,2.72
2022-09-22T10:07:45.200Z,2.00
2022-09-22T10:12:47.178Z,2.08
2022-09-22T10:17:49.372Z,2.22
2022-09-22T10:22:53.904Z,1.90
2022-09-22T10:28:13.300Z,1.45
2022-09-22T10:33:20.516Z,1.80
2022-09-22T10:38:29.439Z,1.73
2022-09-22T10:44:15.494Z,2.50
2022-09-22T10:49:46.933Z,1.83
2022-09-22T10:54:54.676Z,1.00
2022-09-22T11:06:06.921Z,1.23
2022-09-22T11:11:48.162Z,1.48
2022-09-22T11:17:00.432Z,1.33
2022-09-22T11:22:39.844Z,1.17
2022-09-22T11:27:56.893Z,0.98
2022-09-22T11:33:16.863Z,1.10
2022-09-22T11:38:59.914Z,0.88
2022-09-22T11:44:12.052Z,1.13
2022-09-22T11:49:46.042Z,1.08
2022-09-22T11:55:26.675Z,1.15
2022-09-22T12:00:36.065Z,1.20
2022-09-22T12:05:48.613Z,0.93
2022-09-22T12:10:52.046Z,1.10
2022-09-22T12:16:15.370Z,1.50
2022-09-22T12:21:32.497Z,0.80
2022-09-22T12:26:38.044Z,0.83
2022-09-22T12:31:41.854Z,0.93
2022-09-22T12:36:44.333Z,0.80
2022-09-22T12:41:52.675Z,0.85
2022-09-22T12:47:06.821Z,0.75
2022-09-22T12:52:41.774Z,0.60
2022-09-22T12:57:48.897Z,0.68
2022-09-22T13:02:51.998Z,0.55
2022-09-22T13:07:55.885Z,0.60
2022-09-22T13:13:03.836Z,0.50
2022-09-22T13:18:35.703Z,0.60
2022-09-22T13:23:38.116Z,0.60
2022-09-22T13:28:40.648Z,0.50
2022-09-22T13:33:43.067Z,0.70
2022-09-22T13:38:51.090Z,0.90
2022-09-22T13:44:02.922Z,0.90
2022-09-22T13:49:08.864Z,0.80
2022-09-22T13:54:19.415Z,0.73
2022-09-22T13:59:21.876Z,0.60
2022-09-22T14:04:26.705Z,0.70
2022-09-22T14:09:30.343Z,0.65
2022-09-22T14:14:32.788Z,0.80
2022-09-22T14:19:43.085Z,0.73
2022-09-22T14:24:52.302Z,0.68
2022-09-22T14:29:55.872Z,0.75
2022-09-22T14:34:59.430Z,0.55
2022-09-22T14:40:04.879Z,0.68
2022-09-22T14:45:09.780Z,0.90
2022-09-22T14:50:19.241Z,0.68
2022-09-22T14:55:26.958Z,0.80
2022-09-22T15:00:48.396Z,0.80
2022-09-22T15:05:50.485Z,0.60
2022-09-22T15:10:56.204Z,0.75
2022-09-22T15:15:58.659Z,0.75
2022-09-22T15:21:11.163Z,0.70
2022-09-22T15:26:25.123Z,0.52
2022-09-22T15:31:28.402Z,0.70
2022-09-22T15:36:32.993Z,0.60
2022-09-22T15:41:35.112Z,0.77
2022-09-22T15:46:38.124Z,0.75
2022-09-22T15:51:39.923Z,0.57
2022-09-22T15:56:43.315Z,1.60
2022-09-22T16:01:46.485Z,0.90
2022-09-22T16:06:57.092Z,0.60
2022-09-22T16:11:59.746Z,0.43
2022-09-22T16:17:01.568Z,0.47
2022-09-22T16:22:03.423Z,0.60
2022-09-22T16:27:07.480Z,0.70
2022-09-22T16:32:11.094Z,0.73
2022-09-22T16:37:12.942Z,0.70
2022-09-22T16:42:21.549Z,0.80
2022-09-22T16:47:25.972Z,1.08
2022-09-22T16:52:32.016Z,1.35
2022-09-22T16:57:33.952Z,1.33
2022-09-22T17:02:36.038Z,1.48
2022-09-22T17:07:37.917Z,1.20
2022-09-22T17:12:42.968Z,1.48
2022-09-22T17:17:44.852Z,1.70
2022-09-22T17:22:47.748Z,2.63
2022-09-22T17:27:49.541Z,9.77
2022-09-22T17:32:51.378Z,7.47
2022-09-22T17:37:53.488Z,7.95
2022-09-22T17:42:57.267Z,6.43
2022-09-22T17:48:17.382Z,4.78
2022-09-22T17:53:38.210Z,4.22
2022-09-22T17:58:40.014Z,3.80
2022-09-22T18:03:46.197Z,4.60
2022-09-22T18:08:49.089Z,4.20
2022-09-22T18:13:51.147Z,3.38
2022-09-22T18:18:58.474Z,3.25
2022-09-22T18:24:01.158Z,2.92
2022-09-22T18:29:02.975Z,2.42
2022-09-22T18:34:07.950Z,3.63
2022-09-22T18:39:10.082Z,2.90
2022-09-22T18:44:13.443Z,2.45
2022-09-22T18:49:16.740Z,3.60
2022-09-22T18:54:21.462Z,3.95
2022-09-22T18:59:25.896Z,3.42
2022-09-22T19:04:27.937Z,3.25
2022-09-22T19:09:29.813Z,2.10
2022-09-22T19:14:37.042Z,2.10
2022-09-22T19:19:42.337Z,1.75
2022-09-22T19:24:47.873Z,1.75
2022-09-22T19:29:50.758Z,2.08
2022-09-22T19:34:54.926Z,1.60
2022-09-22T19:39:56.985Z,2.13
2022-09-22T19:44:59.261Z,1.90
2022-09-22T19:50:00.998Z,2.00
2022-09-22T19:55:02.829Z,2.20
2022-09-22T20:00:06.007Z,2.80
2022-09-22T20:05:22.447Z,3.67
2022-09-22T20:10:25.026Z,2.65
2022-09-22T20:15:27.690Z,2.30
2022-09-22T20:20:32.203Z,2.80
2022-09-22T20:25:34.108Z,3.03
2022-09-22T20:30:36.045Z,3.08
2022-09-22T20:35:38.278Z,2.30
2022-09-22T20:40:40.337Z,2.47
2022-09-22T20:45:43.533Z,2.80
2022-09-22T20:50:55.651Z,2.40
2022-09-22T20:56:01.302Z,2.22
2022-09-22T21:01:04.311Z,2.08
2022-09-22T21:06:09.008Z,2.25
2022-09-22T21:11:16.145Z,2.42
2022-09-22T21:16:17.954Z,2.93
2022-09-22T21:21:22.472Z,2.00
2022-09-22T21:26:24.403Z,2.25
2022-09-22T21:31:27.078Z,2.17
2022-09-22T21:36:29.240Z,1.63
2022-09-22T21:41:31.825Z,2.38
2022-09-22T21:46:37.324Z,1.85
2022-09-22T21:51:42.175Z,1.88
2022-09-22T21:56:44.771Z,1.80
2022-09-22T22:01:46.709Z,2.15
2022-09-22T22:06:48.707Z,1.90
2022-09-22T22:11:56.606Z,2.17
2022-09-22T22:16:58.667Z,1.98
2022-09-22T22:22:00.547Z,1.75
2022-09-22T22:27:06.424Z,1.73
2022-09-22T22:32:10.667Z,1.80
2022-09-22T22:37:12.615Z,1.67
2022-09-22T22:42:14.360Z,1.77
2022-09-22T22:47:17.231Z,1.77
2022-09-22T22:52:20.106Z,1.73
2022-09-22T22:57:21.945Z,1.63
2022-09-22T23:02:23.827Z,1.42
2022-09-22T23:07:25.821Z,2.05
2022-09-22T23:12:27.671Z,1.98
2022-09-22T23:17:29.563Z,1.63
2022-09-22T23:22:31.784Z,1.70
2022-09-22T23:27:33.536Z,1.80
2022-09-22T23:32:35.423Z,1.63
2022-09-22T23:37:37.257Z,1.52
2022-09-22T23:42:39.307Z,1.80
2022-09-22T23:47:41.666Z,1.92
2022-09-22T23:52:43.532Z,1.63
2022-09-22T23:57:45.703Z,1.40
